Pattersonville, Pennsylvania
Current Conditions -  °F | °C
As of 7:55 PM on Friday 19 Dec 2014 (Local Time) from KHZL Reporting Station
Overcast Overcast  
Wind Chill: 17°   Ceiling: 2200
Heat Index: 28°   Visibility: 10mi
Dew Point: 21°   Wind: 14mph
Humidity: 74%   Direction: 310°NW
Pressure: 30.13"   Gusts: NA
Location:  40.8516°N, 76.2497°W
Report Text: KHZL 200055Z AUTO 31012KT 10SM OVC022 M02/M06 A3013 RMK AO2
Loading
Personal Weather Stations






























Interactive Weather Map New forecast layout! Learn more

10-Day Weather Forecast

Advertisements
Track Severe Weather on mobile